createdAt,value
2023-05-03T00:00:04.748Z,1.70
2023-05-03T00:00:35.425Z,2.00
2023-05-03T00:01:06.349Z,2.00
2023-05-03T00:01:37.440Z,1.90
2023-05-03T00:02:07.948Z,2.20
2023-05-03T00:02:38.973Z,1.60
2023-05-03T00:03:09.727Z,2.10
2023-05-03T00:03:40.205Z,2.10
2023-05-03T00:04:11.118Z,2.20
2023-05-03T00:04:42.086Z,2.10
2023-05-03T00:05:11.770Z,1.80
2023-05-03T00:05:43.754Z,1.70
2023-05-03T00:06:14.288Z,2.20
2023-05-03T00:06:45.276Z,2.20
2023-05-03T00:07:16.189Z,1.70
2023-05-03T00:07:47.159Z,2.20
2023-05-03T00:08:18.063Z,1.80
2023-05-03T00:08:48.996Z,2.20
2023-05-03T00:09:19.901Z,2.50
2023-05-03T00:09:50.808Z,2.40
2023-05-03T00:10:21.741Z,2.00
2023-05-03T00:10:52.681Z,1.90
2023-05-03T00:11:23.598Z,2.20
2023-05-03T00:11:54.510Z,2.00
2023-05-03T00:12:25.432Z,2.10
2023-05-03T00:12:56.392Z,1.90
2023-05-03T00:13:27.305Z,2.10
2023-05-03T00:13:56.833Z,1.80
2023-05-03T00:14:28.747Z,1.90
2023-05-03T00:14:59.666Z,2.10
2023-05-03T00:15:30.604Z,2.30
2023-05-03T00:16:01.519Z,2.30
2023-05-03T00:16:32.383Z,2.00
2023-05-03T00:17:03.341Z,2.20
2023-05-03T00:17:34.307Z,2.10
2023-05-03T00:18:05.255Z,1.90
2023-05-03T00:18:36.182Z,2.00
2023-05-03T00:19:10.569Z,2.40
2023-05-03T00:19:37.905Z,2.10
2023-05-03T00:20:08.879Z,2.30
2023-05-03T00:20:39.759Z,2.00
2023-05-03T00:21:10.571Z,1.80
2023-05-03T00:21:41.471Z,2.00
2023-05-03T00:22:12.416Z,1.90
2023-05-03T00:22:43.329Z,1.50
2023-05-03T00:23:14.233Z,1.80
2023-05-03T00:23:45.170Z,2.00
2023-05-03T00:24:16.085Z,1.80
2023-05-03T00:24:46.975Z,1.60
2023-05-03T00:25:17.885Z,1.70
2023-05-03T00:25:47.915Z,1.90
2023-05-03T00:26:19.862Z,1.70
2023-05-03T00:26:50.812Z,2.20
2023-05-03T00:27:21.707Z,1.90
2023-05-03T00:27:52.516Z,2.00
2023-05-03T00:28:23.414Z,2.20
2023-05-03T00:28:54.334Z,1.50
2023-05-03T00:29:25.251Z,1.80
2023-05-03T00:29:56.199Z,1.80
2023-05-03T00:30:27.137Z,1.70
2023-05-03T00:30:58.132Z,1.70
2023-05-03T00:31:28.929Z,1.60
2023-05-03T00:31:58.464Z,1.50
2023-05-03T00:32:29.211Z,1.80
2023-05-03T00:33:01.156Z,1.70
2023-05-03T00:33:32.129Z,1.90
2023-05-03T00:34:03.039Z,1.70
2023-05-03T00:34:33.997Z,1.80
2023-05-03T00:35:04.892Z,1.80
2023-05-03T00:35:36.770Z,1.80
2023-05-03T00:36:06.679Z,1.70
2023-05-03T00:36:37.596Z,2.10
2023-05-03T00:37:08.497Z,1.60
2023-05-03T00:37:39.421Z,1.60
2023-05-03T00:38:10.316Z,1.80
2023-05-03T00:38:41.224Z,1.70
2023-05-03T00:39:12.128Z,1.70
2023-05-03T00:39:43.027Z,1.80
2023-05-03T00:40:13.986Z,1.30
2023-05-03T00:40:44.890Z,1.50
2023-05-03T00:41:15.680Z,1.50
2023-05-03T00:41:46.613Z,1.60
2023-05-03T00:42:17.502Z,1.30
2023-05-03T00:42:48.425Z,1.80
2023-05-03T00:43:19.332Z,1.50
2023-05-03T00:43:50.251Z,1.90
2023-05-03T00:44:21.170Z,1.60
2023-05-03T00:44:53.353Z,1.60
2023-05-03T00:45:22.897Z,1.90
2023-05-03T00:45:55.268Z,1.30
2023-05-03T00:46:24.285Z,1.80
2023-05-03T00:46:55.081Z,1.70
2023-05-03T00:47:26.058Z,1.70
2023-05-03T00:47:56.978Z,1.50
2023-05-03T00:48:27.897Z,1.70
2023-05-03T00:48:58.814Z,1.80
2023-05-03T00:49:28.337Z,1.70
2023-05-03T00:50:00.622Z,1.60
2023-05-03T00:50:30.811Z,1.70
2023-05-03T00:51:01.721Z,1.80
2023-05-03T00:51:32.608Z,1.60
2023-05-03T00:52:03.492Z,1.60
2023-05-03T00:52:34.404Z,1.60
2023-05-03T00:53:05.222Z,1.80
2023-05-03T00:53:38.154Z,1.80
2023-05-03T00:54:06.955Z,1.60
2023-05-03T00:54:37.942Z,1.70
2023-05-03T00:55:08.875Z,1.60
2023-05-03T00:55:39.752Z,1.60
2023-05-03T00:56:10.703Z,1.70
2023-05-03T00:56:51.042Z,1.40
2023-05-03T00:57:12.443Z,2.00
2023-05-03T00:57:43.362Z,1.40
2023-05-03T00:58:14.269Z,1.50
2023-05-03T00:58:45.163Z,1.40
2023-05-03T00:59:16.100Z,1.70
2023-05-03T00:59:47.021Z,1.30
2023-05-03T01:00:17.986Z,2.00
2023-05-03T01:00:48.925Z,1.90
2023-05-03T01:01:19.920Z,1.80
2023-05-03T01:01:49.513Z,1.70
2023-05-03T01:02:20.967Z,1.90
2023-05-03T01:02:52.002Z,1.40
2023-05-03T01:03:22.518Z,1.60
2023-05-03T01:03:53.069Z,1.70
2023-05-03T01:04:23.560Z,1.60
2023-05-03T01:04:54.509Z,1.50
2023-05-03T01:05:25.394Z,1.50
2023-05-03T01:05:56.298Z,1.40
2023-05-03T01:06:27.320Z,1.60
2023-05-03T01:06:57.798Z,1.60
2023-05-03T01:07:28.764Z,1.60
2023-05-03T01:07:59.669Z,1.20
2023-05-03T01:08:30.686Z,1.70
2023-05-03T01:09:01.577Z,1.50
2023-05-03T01:09:32.507Z,1.70
2023-05-03T01:10:03.765Z,1.60
2023-05-03T01:10:33.305Z,1.40
2023-05-03T01:11:05.244Z,1.50
2023-05-03T01:11:36.769Z,1.50
2023-05-03T01:12:07.157Z,1.60
2023-05-03T01:12:37.958Z,1.70
2023-05-03T01:13:08.768Z,1.60
2023-05-03T01:13:39.659Z,1.60
2023-05-03T01:14:10.673Z,2.00
2023-05-03T01:14:41.055Z,1.70
2023-05-03T01:15:11.964Z,1.30
2023-05-03T01:15:42.814Z,1.80
2023-05-03T01:16:13.737Z,1.70
2023-05-03T01:16:44.808Z,1.60
2023-05-03T01:17:15.266Z,1.60
2023-05-03T01:17:46.213Z,1.50
2023-05-03T01:18:17.114Z,1.40
2023-05-03T01:18:48.071Z,1.50
2023-05-03T01:19:18.971Z,1.30
2023-05-03T01:19:49.889Z,2.10
2023-05-03T01:20:20.801Z,1.60
2023-05-03T01:20:51.699Z,1.50
2023-05-03T01:21:22.616Z,1.50
2023-05-03T01:21:52.158Z,1.70
2023-05-03T01:22:24.111Z,1.70
2023-05-03T01:22:55.079Z,2.50
2023-05-03T01:23:26.007Z,1.40
2023-05-03T01:23:56.945Z,1.50
2023-05-03T01:24:27.868Z,1.60
2023-05-03T01:24:58.771Z,1.60
2023-05-03T01:25:29.660Z,1.60
2023-05-03T01:26:02.544Z,1.60
2023-05-03T01:26:31.273Z,2.00
2023-05-03T01:27:02.255Z,1.60
2023-05-03T01:27:33.052Z,1.60
2023-05-03T01:28:03.981Z,1.60
2023-05-03T01:28:36.936Z,1.60
2023-05-03T01:29:05.730Z,1.50
2023-05-03T01:29:36.642Z,1.80
2023-05-03T01:30:07.573Z,1.80
2023-05-03T01:30:37.143Z,1.90
2023-05-03T01:31:09.203Z,1.30
2023-05-03T01:31:39.693Z,1.30
2023-05-03T01:32:10.631Z,1.70
2023-05-03T01:32:41.675Z,1.40
2023-05-03T01:33:11.274Z,1.40
2023-05-03T01:33:43.808Z,1.70
2023-05-03T01:34:13.733Z,1.90
2023-05-03T01:34:44.614Z,1.70
2023-05-03T01:35:14.165Z,1.60
2023-05-03T01:35:46.077Z,1.60
2023-05-03T01:36:17.007Z,1.80
2023-05-03T01:36:49.779Z,1.80
2023-05-03T01:37:18.710Z,1.80
2023-05-03T01:37:49.615Z,1.50
2023-05-03T01:38:20.193Z,1.50
2023-05-03T01:38:51.154Z,1.70
2023-05-03T01:39:22.089Z,1.50
2023-05-03T01:39:51.815Z,1.70
2023-05-03T01:40:23.201Z,1.50
2023-05-03T01:40:54.127Z,1.60
2023-05-03T01:41:25.024Z,1.70
2023-05-03T01:41:55.925Z,1.70
2023-05-03T01:42:26.845Z,1.50
2023-05-03T01:42:57.772Z,1.60
2023-05-03T01:43:28.587Z,1.70
2023-05-03T01:43:59.508Z,1.70
2023-05-03T01:44:30.437Z,1.70
2023-05-03T01:45:01.365Z,1.60
2023-05-03T01:45:32.327Z,1.60
2023-05-03T01:46:03.332Z,1.60
2023-05-03T01:46:33.780Z,1.50
2023-05-03T01:47:04.700Z,1.50
2023-05-03T01:47:34.256Z,1.60
2023-05-03T01:48:06.229Z,1.50
2023-05-03T01:48:37.167Z,1.90
2023-05-03T01:49:08.799Z,1.90
2023-05-03T01:49:38.705Z,1.50
2023-05-03T01:50:09.590Z,1.40
2023-05-03T01:50:40.488Z,1.70
2023-05-03T01:51:11.385Z,1.50
2023-05-03T01:51:42.300Z,1.60
2023-05-03T01:52:13.208Z,1.40
2023-05-03T01:52:44.140Z,1.60
2023-05-03T01:53:15.070Z,1.90
2023-05-03T01:53:45.974Z,1.70
2023-05-03T01:54:16.864Z,1.50
2023-05-03T01:54:46.420Z,1.40
2023-05-03T01:55:18.319Z,1.50
2023-05-03T01:55:49.133Z,1.50
2023-05-03T01:56:20.058Z,1.40
2023-05-03T01:56:50.971Z,1.60
2023-05-03T01:57:21.883Z,1.70
2023-05-03T01:57:52.844Z,1.60
2023-05-03T01:58:23.742Z,1.50
2023-05-03T01:58:54.697Z,1.40
2023-05-03T01:59:25.580Z,1.70
2023-05-03T01:59:56.510Z,1.50
2023-05-03T02:00:29.608Z,1.40
2023-05-03T02:00:58.294Z,1.50
2023-05-03T02:01:29.275Z,1.70
2023-05-03T02:02:00.185Z,1.70
2023-05-03T02:02:31.101Z,1.60
2023-05-03T02:03:02.059Z,1.90
2023-05-03T02:03:32.974Z,1.80
2023-05-03T02:04:03.942Z,1.60
2023-05-03T02:04:34.924Z,1.80
2023-05-03T02:05:05.369Z,1.40
2023-05-03T02:05:36.276Z,1.70
2023-05-03T02:06:07.198Z,1.70
2023-05-03T02:06:38.146Z,1.80
2023-05-03T02:07:09.443Z,1.70
2023-05-03T02:07:40.876Z,1.50
2023-05-03T02:08:10.680Z,1.80
2023-05-03T02:08:41.586Z,1.60
2023-05-03T02:09:12.490Z,1.80
2023-05-03T02:09:43.419Z,1.50
2023-05-03T02:10:14.355Z,1.70
2023-05-03T02:10:45.253Z,1.40
2023-05-03T02:11:16.161Z,1.50
2023-05-03T02:11:47.091Z,1.50
2023-05-03T02:12:18.018Z,1.40
2023-05-03T02:12:48.980Z,1.70
2023-05-03T02:13:19.915Z,1.50
2023-05-03T02:13:50.814Z,1.30
2023-05-03T02:14:21.719Z,1.60
2023-05-03T02:14:52.525Z,1.40
2023-05-03T02:15:23.453Z,1.80
2023-05-03T02:15:54.342Z,1.90
2023-05-03T02:16:25.322Z,1.50
2023-05-03T02:16:56.363Z,1.70
2023-05-03T02:17:26.837Z,1.80
2023-05-03T02:17:57.787Z,1.40
2023-05-03T02:18:28.668Z,1.50
2023-05-03T02:18:59.810Z,1.80
2023-05-03T02:19:29.342Z,1.70
2023-05-03T02:20:01.343Z,1.90
2023-05-03T02:20:31.944Z,1.80
2023-05-03T02:21:02.837Z,1.60
2023-05-03T02:21:32.375Z,1.50
2023-05-03T02:22:04.296Z,2.00
2023-05-03T02:22:35.206Z,1.90
2023-05-03T02:23:06.162Z,1.70
2023-05-03T02:23:35.704Z,1.60
2023-05-03T02:24:07.614Z,1.50
2023-05-03T02:24:38.561Z,1.50
2023-05-03T02:25:09.453Z,1.70
2023-05-03T02:25:40.464Z,1.80
2023-05-03T02:26:11.377Z,2.00
2023-05-03T02:26:42.303Z,1.60
2023-05-03T02:27:13.228Z,1.90
2023-05-03T02:27:44.793Z,1.80
2023-05-03T02:28:14.745Z,1.60
2023-05-03T02:28:45.640Z,1.60
2023-05-03T02:29:16.559Z,1.70
2023-05-03T02:29:47.501Z,2.00
2023-05-03T02:30:18.430Z,1.60
2023-05-03T02:30:49.388Z,1.60
2023-05-03T02:31:20.248Z,1.50
2023-05-03T02:31:50.744Z,1.60
2023-05-03T02:32:21.569Z,1.70
2023-05-03T02:32:52.517Z,1.40
2023-05-03T02:33:22.090Z,1.50
2023-05-03T02:33:54.034Z,1.70
2023-05-03T02:34:24.926Z,1.80
2023-05-03T02:34:55.841Z,2.20
2023-05-03T02:35:26.778Z,2.10
2023-05-03T02:35:57.728Z,2.20
2023-05-03T02:36:27.326Z,2.30
2023-05-03T02:36:59.216Z,2.00
2023-05-03T02:37:30.132Z,2.10
2023-05-03T02:37:59.658Z,2.20
2023-05-03T02:38:31.559Z,2.30
2023-05-03T02:39:02.463Z,2.70
2023-05-03T02:39:33.375Z,2.50
2023-05-03T02:40:04.528Z,3.10
2023-05-03T02:40:35.158Z,2.60
2023-05-03T02:41:06.108Z,3.20
2023-05-03T02:41:36.896Z,3.40
2023-05-03T02:42:07.817Z,4.20
2023-05-03T02:42:38.719Z,3.90
2023-05-03T02:43:08.252Z,4.10
2023-05-03T02:43:40.214Z,4.00
2023-05-03T02:44:11.116Z,4.20
2023-05-03T02:44:42.033Z,3.40
2023-05-03T02:45:12.949Z,4.20
2023-05-03T02:45:43.857Z,4.00
2023-05-03T02:46:14.852Z,3.70
2023-05-03T02:46:44.613Z,4.60
2023-05-03T02:47:16.136Z,4.10
2023-05-03T02:47:47.121Z,4.00
2023-05-03T02:48:18.024Z,4.30
2023-05-03T02:48:48.919Z,3.50
2023-05-03T02:49:18.941Z,4.80
2023-05-03T02:49:50.861Z,3.90
2023-05-03T02:50:21.766Z,3.70
2023-05-03T02:50:52.583Z,4.10
2023-05-03T02:51:22.137Z,3.80
2023-05-03T02:51:54.054Z,3.80
2023-05-03T02:52:25.304Z,4.30
2023-05-03T02:52:55.689Z,4.30
2023-05-03T02:53:26.643Z,4.80
2023-05-03T02:53:57.554Z,4.60
2023-05-03T02:54:27.143Z,4.60
2023-05-03T02:54:59.047Z,3.90
2023-05-03T02:55:30.800Z,4.10
2023-05-03T02:56:00.651Z,4.40
2023-05-03T02:56:31.591Z,4.20
2023-05-03T02:57:02.521Z,4.30
2023-05-03T02:57:32.384Z,3.70
2023-05-03T02:58:04.363Z,4.30
2023-05-03T02:58:35.143Z,4.30
2023-05-03T02:59:06.041Z,3.80
2023-05-03T02:59:36.938Z,5.10
2023-05-03T03:00:07.884Z,4.20
2023-05-03T03:00:37.489Z,4.30
2023-05-03T03:01:09.559Z,4.20
2023-05-03T03:01:40.306Z,4.30
2023-05-03T03:02:11.804Z,4.50
2023-05-03T03:02:41.790Z,4.10
2023-05-03T03:03:12.834Z,4.30
2023-05-03T03:03:43.567Z,4.70
2023-05-03T03:04:14.046Z,4.20
2023-05-03T03:04:44.946Z,3.70
2023-05-03T03:05:14.551Z,4.50
2023-05-03T03:05:45.220Z,4.70
2023-05-03T03:06:17.206Z,4.10
2023-05-03T03:06:48.327Z,4.00
2023-05-03T03:07:18.820Z,4.30
2023-05-03T03:07:49.738Z,4.20
2023-05-03T03:08:20.658Z,4.70
2023-05-03T03:08:51.567Z,4.60
2023-05-03T03:09:22.370Z,3.80
2023-05-03T03:09:53.299Z,4.60
2023-05-03T03:10:24.233Z,4.70
2023-05-03T03:10:55.124Z,4.20
2023-05-03T03:11:24.675Z,5.50
2023-05-03T03:11:56.645Z,4.40
2023-05-03T03:12:27.562Z,4.10
2023-05-03T03:12:58.339Z,4.70
2023-05-03T03:13:29.254Z,4.30
2023-05-03T03:14:00.195Z,5.30
2023-05-03T03:14:31.093Z,4.40
2023-05-03T03:15:02.012Z,4.40
2023-05-03T03:15:33.117Z,4.30
2023-05-03T03:16:03.565Z,4.30
2023-05-03T03:16:34.604Z,4.00
2023-05-03T03:17:05.047Z,4.40
2023-05-03T03:17:34.685Z,4.30
2023-05-03T03:18:06.229Z,5.00
2023-05-03T03:18:36.652Z,4.40
2023-05-03T03:19:06.544Z,4.40
2023-05-03T03:19:38.473Z,4.30
2023-05-03T03:20:09.421Z,4.70
2023-05-03T03:20:41.342Z,4.70
2023-05-03T03:21:10.060Z,4.30
2023-05-03T03:21:42.002Z,4.90
2023-05-03T03:22:12.928Z,4.00
2023-05-03T03:22:43.877Z,4.20
2023-05-03T03:23:13.489Z,4.50
2023-05-03T03:23:44.090Z,4.50
2023-05-03T03:24:16.020Z,4.10
2023-05-03T03:24:45.918Z,4.20
2023-05-03T03:25:17.821Z,4.20
2023-05-03T03:25:48.775Z,4.70
2023-05-03T03:26:19.687Z,4.70
2023-05-03T03:26:50.642Z,4.20
2023-05-03T03:27:21.599Z,4.30
2023-05-03T03:27:51.149Z,4.00
2023-05-03T03:28:23.115Z,4.30
2023-05-03T03:28:54.000Z,4.20
2023-05-03T03:29:24.906Z,4.50
2023-05-03T03:29:55.824Z,4.80
2023-05-03T03:30:25.357Z,5.30
2023-05-03T03:30:57.266Z,4.80
2023-05-03T03:31:28.221Z,4.60
2023-05-03T03:31:59.195Z,5.70
2023-05-03T03:32:28.825Z,5.30
2023-05-03T03:33:00.798Z,5.40
2023-05-03T03:33:31.735Z,5.00
2023-05-03T03:34:03.652Z,4.90
2023-05-03T03:34:33.463Z,5.00
2023-05-03T03:35:04.348Z,5.20
2023-05-03T03:35:35.240Z,4.90
2023-05-03T03:36:06.070Z,4.50
2023-05-03T03:36:36.985Z,4.60
2023-05-03T03:37:07.913Z,4.70
2023-05-03T03:37:38.652Z,4.10
2023-05-03T03:38:09.523Z,4.50
2023-05-03T03:38:40.541Z,5.20
2023-05-03T03:39:10.156Z,4.40
2023-05-03T03:39:42.006Z,4.60
2023-05-03T03:40:12.786Z,4.50
2023-05-03T03:40:43.652Z,4.10
2023-05-03T03:41:14.549Z,4.70
2023-05-03T03:41:44.123Z,4.70
2023-05-03T03:42:16.894Z,4.80
2023-05-03T03:42:46.892Z,4.90
2023-05-03T03:43:17.725Z,4.60
2023-05-03T03:43:48.583Z,5.00
2023-05-03T03:44:19.425Z,4.30
2023-05-03T03:44:50.286Z,4.10
2023-05-03T03:45:19.854Z,4.10
2023-05-03T03:45:51.723Z,5.10
2023-05-03T03:46:22.640Z,4.60
2023-05-03T03:46:53.568Z,4.50
2023-05-03T03:47:24.554Z,5.30
2023-05-03T03:47:55.247Z,4.50
2023-05-03T03:48:24.717Z,3.90
2023-05-03T03:48:56.588Z,4.70
2023-05-03T03:49:27.451Z,4.20
2023-05-03T03:49:58.313Z,4.40
2023-05-03T03:50:29.188Z,4.30
2023-05-03T03:51:00.053Z,4.40
2023-05-03T03:51:30.931Z,4.50
2023-05-03T03:52:01.772Z,4.40
2023-05-03T03:52:32.661Z,4.70
2023-05-03T03:53:03.525Z,4.80
2023-05-03T03:53:34.400Z,4.40
2023-05-03T03:54:05.276Z,5.00
2023-05-03T03:54:36.216Z,4.20
2023-05-03T03:55:07.056Z,4.60
2023-05-03T03:55:36.600Z,4.70
2023-05-03T03:56:07.150Z,4.10
2023-05-03T03:56:37.958Z,4.00
2023-05-03T03:57:09.805Z,4.90
2023-05-03T03:57:40.684Z,4.40
2023-05-03T03:58:11.475Z,4.50
2023-05-03T03:58:42.321Z,4.70
2023-05-03T03:59:11.892Z,4.70
2023-05-03T03:59:43.735Z,4.40
2023-05-03T04:00:14.608Z,4.90
2023-05-03T04:00:45.473Z,4.80
2023-05-03T04:01:16.370Z,4.80
2023-05-03T04:01:47.253Z,4.30
2023-05-03T04:02:18.136Z,4.70
2023-05-03T04:02:47.886Z,4.50
2023-05-03T04:03:19.428Z,4.10
2023-05-03T04:03:50.438Z,4.70
2023-05-03T04:04:20.933Z,4.60
2023-05-03T04:04:50.530Z,4.00
2023-05-03T04:05:22.392Z,4.40
2023-05-03T04:05:53.269Z,4.40
2023-05-03T04:06:24.183Z,5.10
2023-05-03T04:06:55.062Z,4.20
2023-05-03T04:07:25.942Z,4.20
2023-05-03T04:07:56.801Z,4.80
2023-05-03T04:08:27.557Z,4.20
2023-05-03T04:08:58.459Z,4.10
2023-05-03T04:09:29.320Z,4.60
2023-05-03T04:10:00.557Z,4.40
2023-05-03T04:10:31.088Z,4.30
2023-05-03T04:11:01.960Z,4.50
2023-05-03T04:11:32.837Z,4.70
2023-05-03T04:12:03.678Z,4.80
2023-05-03T04:12:34.539Z,4.10
2023-05-03T04:13:05.303Z,4.40
2023-05-03T04:13:35.290Z,4.20
2023-05-03T04:14:07.148Z,4.10
2023-05-03T04:14:37.903Z,4.90
2023-05-03T04:15:08.777Z,4.90
2023-05-03T04:15:38.745Z,4.40
2023-05-03T04:16:10.612Z,4.40
2023-05-03T04:16:40.195Z,4.60
2023-05-03T04:17:12.168Z,4.80
2023-05-03T04:17:43.157Z,4.00
2023-05-03T04:18:14.042Z,5.10
2023-05-03T04:18:44.793Z,4.40
2023-05-03T04:19:16.729Z,4.40
2023-05-03T04:19:46.410Z,5.00
2023-05-03T04:20:16.236Z,4.70
2023-05-03T04:20:48.006Z,4.90
2023-05-03T04:21:18.741Z,4.30
2023-05-03T04:21:49.584Z,4.90
2023-05-03T04:22:19.445Z,5.00
2023-05-03T04:22:51.282Z,4.80
2023-05-03T04:23:22.040Z,4.70
2023-05-03T04:23:52.953Z,4.30
2023-05-03T04:24:23.798Z,4.70
2023-05-03T04:24:54.694Z,4.20
2023-05-03T04:25:25.440Z,4.80
2023-05-03T04:25:56.315Z,5.20
2023-05-03T04:26:31.924Z,5.20
2023-05-03T04:26:57.832Z,4.80
2023-05-03T04:27:27.820Z,4.90
2023-05-03T04:27:59.692Z,4.80
2023-05-03T04:28:30.566Z,4.50
2023-05-03T04:29:01.451Z,4.00
2023-05-03T04:29:32.296Z,4.50
2023-05-03T04:30:03.738Z,4.80
2023-05-03T04:30:33.897Z,5.00
2023-05-03T04:31:04.775Z,4.50
2023-05-03T04:31:34.768Z,4.80
2023-05-03T04:32:06.609Z,5.00
2023-05-03T04:32:37.703Z,4.60
2023-05-03T04:33:08.266Z,4.30
2023-05-03T04:33:38.338Z,4.60
2023-05-03T04:34:08.782Z,5.00
2023-05-03T04:34:41.010Z,4.70
2023-05-03T04:35:11.486Z,4.70
2023-05-03T04:35:42.366Z,4.40
2023-05-03T04:36:13.225Z,4.60
2023-05-03T04:36:43.967Z,4.80
2023-05-03T04:37:14.723Z,4.50
2023-05-03T04:37:45.563Z,4.80
2023-05-03T04:38:16.434Z,4.50
2023-05-03T04:38:47.284Z,4.60
2023-05-03T04:39:18.264Z,4.00
2023-05-03T04:39:49.111Z,5.30
2023-05-03T04:40:19.989Z,4.60
2023-05-03T04:40:49.555Z,4.70
2023-05-03T04:41:21.527Z,4.80
2023-05-03T04:41:52.122Z,4.20
2023-05-03T04:42:23.003Z,4.70
2023-05-03T04:42:53.839Z,4.20
2023-05-03T04:43:24.738Z,5.00
2023-05-03T04:43:54.297Z,4.70
2023-05-03T04:44:26.088Z,4.40
2023-05-03T04:44:55.606Z,4.50
2023-05-03T04:45:27.474Z,4.50
2023-05-03T04:45:57.127Z,4.90
2023-05-03T04:46:29.018Z,4.30
2023-05-03T04:46:59.866Z,4.80
2023-05-03T04:47:30.747Z,4.70
2023-05-03T04:48:01.765Z,5.30
2023-05-03T04:48:32.195Z,5.30
2023-05-03T04:49:01.741Z,5.00
2023-05-03T04:49:32.702Z,5.40
2023-05-03T04:50:04.958Z,5.00
2023-05-03T04:50:35.549Z,5.10
2023-05-03T04:51:06.320Z,5.50
2023-05-03T04:51:37.192Z,5.20
2023-05-03T04:52:08.066Z,4.90
2023-05-03T04:52:38.934Z,5.40
2023-05-03T04:53:09.696Z,4.40
2023-05-03T04:53:40.551Z,4.50
2023-05-03T04:54:10.039Z,4.70
2023-05-03T04:54:41.906Z,4.80
2023-05-03T04:55:12.791Z,4.70
2023-05-03T04:55:43.665Z,4.80
2023-05-03T04:56:14.553Z,4.40
2023-05-03T04:56:45.306Z,4.10
2023-05-03T04:57:16.172Z,4.50
2023-05-03T04:57:47.027Z,5.30
2023-05-03T04:58:17.896Z,4.90
2023-05-03T04:58:48.724Z,3.90
2023-05-03T04:59:19.573Z,5.00
2023-05-03T04:59:50.455Z,5.40
2023-05-03T05:00:21.300Z,4.80
2023-05-03T05:00:52.186Z,4.10
2023-05-03T05:01:24.114Z,5.10
2023-05-03T05:01:53.807Z,5.50
2023-05-03T05:02:24.717Z,4.90
2023-05-03T05:02:55.705Z,4.50
2023-05-03T05:03:26.722Z,4.90
2023-05-03T05:03:57.237Z,4.30
2023-05-03T05:04:27.703Z,5.20
2023-05-03T05:04:58.531Z,4.70
2023-05-03T05:05:29.380Z,5.10
2023-05-03T05:06:00.262Z,4.60
2023-05-03T05:06:30.264Z,4.80
2023-05-03T05:07:01.990Z,5.30
2023-05-03T05:07:32.876Z,4.80
2023-05-03T05:08:03.717Z,5.00
2023-05-03T05:08:34.572Z,4.70
2023-05-03T05:09:05.407Z,5.00
2023-05-03T05:09:36.318Z,4.80
2023-05-03T05:10:07.180Z,5.30
2023-05-03T05:10:39.045Z,4.10
2023-05-03T05:11:08.782Z,4.70
2023-05-03T05:11:39.681Z,4.70
2023-05-03T05:12:09.158Z,4.70
2023-05-03T05:12:41.029Z,5.60
2023-05-03T05:13:11.896Z,4.80
2023-05-03T05:13:42.783Z,4.60
2023-05-03T05:14:13.683Z,5.70
2023-05-03T05:14:43.654Z,5.40
2023-05-03T05:15:15.547Z,5.10
2023-05-03T05:15:45.147Z,5.00
2023-05-03T05:16:15.770Z,5.20
2023-05-03T05:16:47.725Z,4.70
2023-05-03T05:17:18.703Z,4.70
2023-05-03T05:17:49.642Z,5.40
2023-05-03T05:18:20.382Z,4.80
2023-05-03T05:18:51.288Z,5.30
2023-05-03T05:19:22.154Z,4.80
2023-05-03T05:19:53.039Z,4.40
2023-05-03T05:20:23.900Z,4.80
2023-05-03T05:20:54.661Z,4.20
2023-05-03T05:21:25.605Z,4.70
2023-05-03T05:21:56.466Z,4.60
2023-05-03T05:22:27.327Z,4.80
2023-05-03T05:22:58.183Z,4.90
2023-05-03T05:23:29.064Z,4.60
2023-05-03T05:23:59.916Z,4.50
2023-05-03T05:24:30.763Z,4.60
2023-05-03T05:25:01.535Z,5.30
2023-05-03T05:25:31.097Z,4.10
2023-05-03T05:26:02.063Z,4.30
2023-05-03T05:26:33.950Z,4.20
2023-05-03T05:27:04.833Z,5.10
2023-05-03T05:27:34.809Z,4.80
2023-05-03T05:28:05.355Z,4.40
2023-05-03T05:28:37.228Z,4.80
2023-05-03T05:29:07.205Z,5.00
2023-05-03T05:29:39.105Z,4.70
2023-05-03T05:30:09.964Z,4.60
2023-05-03T05:30:40.743Z,4.30
2023-05-03T05:31:11.515Z,4.90
2023-05-03T05:31:42.312Z,4.20
2023-05-03T05:32:13.376Z,4.30
2023-05-03T05:32:43.841Z,4.70
2023-05-03T05:33:16.051Z,4.50
2023-05-03T05:33:45.243Z,4.00
2023-05-03T05:34:14.875Z,4.40
2023-05-03T05:34:46.732Z,4.20
2023-05-03T05:35:18.481Z,4.30
2023-05-03T05:35:47.284Z,4.60
2023-05-03T05:36:19.152Z,4.60
2023-05-03T05:36:49.986Z,4.30
2023-05-03T05:37:20.825Z,4.40
2023-05-03T05:37:50.396Z,4.30
2023-05-03T05:38:22.327Z,4.60
2023-05-03T05:38:53.210Z,4.20
2023-05-03T05:39:26.090Z,4.30
2023-05-03T05:39:54.814Z,4.10
2023-05-03T05:40:25.699Z,4.40
2023-05-03T05:40:56.551Z,4.30
2023-05-03T05:41:27.419Z,4.40
2023-05-03T05:41:58.298Z,4.00
2023-05-03T05:42:29.167Z,4.50
2023-05-03T05:43:00.278Z,4.40
2023-05-03T05:43:30.622Z,4.80
2023-05-03T05:44:01.464Z,4.30
2023-05-03T05:44:32.323Z,4.20
2023-05-03T05:45:03.118Z,4.40
2023-05-03T05:45:33.969Z,4.30
2023-05-03T05:46:04.867Z,4.50
2023-05-03T05:46:35.778Z,4.20
2023-05-03T05:47:08.774Z,4.30
2023-05-03T05:47:37.470Z,4.40
2023-05-03T05:48:08.218Z,4.80
2023-05-03T05:48:38.691Z,4.90
2023-05-03T05:49:09.558Z,4.40
2023-05-03T05:49:40.439Z,4.30
2023-05-03T05:50:17.594Z,4.60
2023-05-03T05:50:42.090Z,4.20
2023-05-03T05:51:12.951Z,4.30
2023-05-03T05:51:43.810Z,4.40
2023-05-03T05:52:13.372Z,4.40
2023-05-03T05:52:45.248Z,5.10
2023-05-03T05:53:16.114Z,5.20
2023-05-03T05:53:46.959Z,4.40
2023-05-03T05:54:17.831Z,4.70
2023-05-03T05:54:48.702Z,5.50
2023-05-03T05:55:19.541Z,5.20
2023-05-03T05:55:49.095Z,4.40
2023-05-03T05:56:20.980Z,4.70
2023-05-03T05:56:51.885Z,4.90
2023-05-03T05:57:22.778Z,4.20
2023-05-03T05:57:53.652Z,4.30
2023-05-03T05:58:23.627Z,4.80
2023-05-03T05:58:55.527Z,5.20
2023-05-03T05:59:26.356Z,5.10
2023-05-03T05:59:57.197Z,4.60
2023-05-03T06:00:28.075Z,4.80
2023-05-03T06:01:00.942Z,5.40
2023-05-03T06:01:28.875Z,4.20
2023-05-03T06:02:00.830Z,4.90
2023-05-03T06:02:31.848Z,4.90
2023-05-03T06:03:02.254Z,4.80
2023-05-03T06:03:33.129Z,4.50
2023-05-03T06:04:03.913Z,4.90
2023-05-03T06:04:34.641Z,5.10
2023-05-03T06:05:07.564Z,4.60
2023-05-03T06:05:36.243Z,4.70
2023-05-03T06:06:06.797Z,4.50
2023-05-03T06:06:37.692Z,4.60
2023-05-03T06:07:08.644Z,5.60
2023-05-03T06:07:39.490Z,5.10
2023-05-03T06:08:10.392Z,5.00
2023-05-03T06:08:39.867Z,6.10
2023-05-03T06:09:23.557Z,5.30
2023-05-03T06:09:42.477Z,4.80
2023-05-03T06:10:13.286Z,5.00
2023-05-03T06:10:44.153Z,4.80
2023-05-03T06:11:15.021Z,5.00
2023-05-03T06:11:45.880Z,5.10
2023-05-03T06:12:16.742Z,5.70
2023-05-03T06:12:47.628Z,5.20
2023-05-03T06:13:18.507Z,4.20
2023-05-03T06:13:49.378Z,5.40
2023-05-03T06:14:20.256Z,4.50
2023-05-03T06:15:01.922Z,5.00
2023-05-03T06:15:21.880Z,5.10
2023-05-03T06:15:52.728Z,5.50
2023-05-03T06:16:23.629Z,4.70
2023-05-03T06:16:54.581Z,5.30
2023-05-03T06:17:25.462Z,4.70
2023-05-03T06:17:56.391Z,4.80
2023-05-03T06:18:27.285Z,4.70
2023-05-03T06:18:58.167Z,5.20
2023-05-03T06:19:29.067Z,5.90
2023-05-03T06:19:59.901Z,4.90
2023-05-03T06:20:30.729Z,5.30
2023-05-03T06:21:01.554Z,4.80
2023-05-03T06:21:32.407Z,4.70
2023-05-03T06:22:03.275Z,5.20
2023-05-03T06:22:34.132Z,5.40
2023-05-03T06:23:05.009Z,4.30
2023-05-03T06:23:35.869Z,5.50
2023-05-03T06:24:06.719Z,5.10
2023-05-03T06:24:37.602Z,5.10
2023-05-03T06:25:09.389Z,4.90
2023-05-03T06:25:39.238Z,5.90
2023-05-03T06:26:10.076Z,5.50
2023-05-03T06:26:40.943Z,4.90
2023-05-03T06:27:11.810Z,5.00
2023-05-03T06:27:42.636Z,5.20
2023-05-03T06:28:13.502Z,5.10
2023-05-03T06:28:43.525Z,4.80
2023-05-03T06:29:15.354Z,5.10
2023-05-03T06:29:46.269Z,5.30
2023-05-03T06:30:17.143Z,4.70
2023-05-03T06:30:48.033Z,4.90
2023-05-03T06:31:17.631Z,5.30
2023-05-03T06:31:49.518Z,5.50
2023-05-03T06:32:20.517Z,4.70
2023-05-03T06:32:51.332Z,5.10
2023-05-03T06:33:21.765Z,4.90
2023-05-03T06:33:52.640Z,4.50
2023-05-03T06:34:23.494Z,5.40
2023-05-03T06:34:54.364Z,5.10
2023-05-03T06:35:24.335Z,4.70
2023-05-03T06:35:56.204Z,4.90
2023-05-03T06:36:27.071Z,5.40
2023-05-03T06:36:57.901Z,5.20
2023-05-03T06:37:28.663Z,4.90
2023-05-03T06:37:59.543Z,5.30
2023-05-03T06:38:30.383Z,5.10
2023-05-03T06:39:01.226Z,5.50
2023-05-03T06:39:32.205Z,5.20
2023-05-03T06:40:03.244Z,4.50
2023-05-03T06:40:33.695Z,6.00
2023-05-03T06:41:04.583Z,6.10
2023-05-03T06:41:35.313Z,4.50
2023-05-03T06:42:06.164Z,4.90
2023-05-03T06:42:37.031Z,5.30
2023-05-03T06:43:07.902Z,5.30
2023-05-03T06:43:38.749Z,4.90
2023-05-03T06:44:09.631Z,5.80
2023-05-03T06:44:39.184Z,4.70
2023-05-03T06:45:11.041Z,4.40
2023-05-03T06:45:41.927Z,5.30
2023-05-03T06:46:12.884Z,5.10
2023-05-03T06:46:43.874Z,5.00
2023-05-03T06:47:14.319Z,4.60
2023-05-03T06:47:45.275Z,5.00
2023-05-03T06:48:16.184Z,4.50
2023-05-03T06:48:47.092Z,5.10
2023-05-03T06:49:17.983Z,4.70
2023-05-03T06:49:49.055Z,4.90
2023-05-03T06:50:19.435Z,5.00